sensor_id;sensor_type;location;lat;lon;timestamp;P1;durP1;ratioP1;P2;durP2;ratioP2
7517;SDS011;3800;48.922;9.444;2022-09-16T00:02:21;8.73;;;7.33;;
7517;SDS011;3800;48.922;9.444;2022-09-16T00:04:50;9.43;;;8.53;;
7517;SDS011;3800;48.922;9.444;2022-09-16T00:07:21;8.07;;;7.30;;
7517;SDS011;3800;48.922;9.444;2022-09-16T00:09:49;7.63;;;7.03;;
7517;SDS011;3800;48.922;9.444;2022-09-16T00:12:18;8.17;;;7.47;;
7517;SDS011;3800;48.922;9.444;2022-09-16T00:14:46;8.73;;;7.70;;
7517;SDS011;3800;48.922;9.444;2022-09-16T00:17:14;9.23;;;8.33;;
7517;SDS011;3800;48.922;9.444;2022-09-16T00:19:42;8.73;;;7.93;;
7517;SDS011;3800;48.922;9.444;2022-09-16T00:22:11;8.83;;;8.03;;
7517;SDS011;3800;48.922;9.444;2022-09-16T00:24:39;8.17;;;7.40;;
7517;SDS011;3800;48.922;9.444;2022-09-16T00:27:08;8.60;;;7.90;;
7517;SDS011;3800;48.922;9.444;2022-09-16T00:29:36;9.60;;;8.60;;
7517;SDS011;3800;48.922;9.444;2022-09-16T00:32:05;8.20;;;7.50;;
7517;SDS011;3800;48.922;9.444;2022-09-16T00:34:33;8.67;;;7.80;;
7517;SDS011;3800;48.922;9.444;2022-09-16T00:37:01;9.07;;;8.30;;
7517;SDS011;3800;48.922;9.444;2022-09-16T00:39:30;8.77;;;7.97;;
7517;SDS011;3800;48.922;9.444;2022-09-16T00:41:59;8.70;;;7.90;;
7517;SDS011;3800;48.922;9.444;2022-09-16T00:47:13;8.97;;;7.80;;
7517;SDS011;3800;48.922;9.444;2022-09-16T00:49:41;9.87;;;7.80;;
7517;SDS011;3800;48.922;9.444;2022-09-16T00:52:10;8.23;;;7.17;;
7517;SDS011;3800;48.922;9.444;2022-09-16T00:54:38;7.90;;;7.20;;
7517;SDS011;3800;48.922;9.444;2022-09-16T00:57:09;9.40;;;8.07;;
7517;SDS011;3800;48.922;9.444;2022-09-16T00:59:38;8.40;;;7.60;;
7517;SDS011;3800;48.922;9.444;2022-09-16T01:02:07;8.67;;;7.77;;
7517;SDS011;3800;48.922;9.444;2022-09-16T01:04:36;8.63;;;7.83;;
7517;SDS011;3800;48.922;9.444;2022-09-16T01:07:05;7.93;;;7.13;;
7517;SDS011;3800;48.922;9.444;2022-09-16T01:09:33;8.87;;;8.07;;
7517;SDS011;3800;48.922;9.444;2022-09-16T01:12:02;7.90;;;7.10;;
7517;SDS011;3800;48.922;9.444;2022-09-16T01:14:31;9.37;;;8.10;;
7517;SDS011;3800;48.922;9.444;2022-09-16T01:17:07;8.07;;;7.27;;
7517;SDS011;3800;48.922;9.444;2022-09-16T01:20:02;8.93;;;8.03;;
7517;SDS011;3800;48.922;9.444;2022-09-16T01:22:44;8.40;;;7.60;;
7517;SDS011;3800;48.922;9.444;2022-09-16T01:25:27;9.50;;;8.17;;
7517;SDS011;3800;48.922;9.444;2022-09-16T01:31:22;9.30;;;8.40;;
7517;SDS011;3800;48.922;9.444;2022-09-16T01:34:01;8.43;;;7.63;;
7517;SDS011;3800;48.922;9.444;2022-09-16T01:36:37;9.10;;;8.20;;
7517;SDS011;3800;48.922;9.444;2022-09-16T01:39:06;9.10;;;8.20;;
7517;SDS011;3800;48.922;9.444;2022-09-16T01:41:42;11.13;;;8.57;;
7517;SDS011;3800;48.922;9.444;2022-09-16T01:44:16;9.73;;;8.00;;
7517;SDS011;3800;48.922;9.444;2022-09-16T01:47:02;9.20;;;8.30;;
7517;SDS011;3800;48.922;9.444;2022-09-16T01:50:06;9.17;;;8.33;;
7517;SDS011;3800;48.922;9.444;2022-09-16T01:52:30;12.07;;;7.13;;
7517;SDS011;3800;48.922;9.444;2022-09-16T01:55:00;7.93;;;6.87;;
7517;SDS011;3800;48.922;9.444;2022-09-16T01:57:35;7.97;;;7.27;;
7517;SDS011;3800;48.922;9.444;2022-09-16T02:00:03;10.53;;;7.37;;
7517;SDS011;3800;48.922;9.444;2022-09-16T02:02:39;8.90;;;8.00;;
7517;SDS011;3800;48.922;9.444;2022-09-16T02:05:24;8.73;;;7.83;;
7517;SDS011;3800;48.922;9.444;2022-09-16T02:07:55;8.03;;;7.27;;
7517;SDS011;3800;48.922;9.444;2022-09-16T02:10:23;7.70;;;7.00;;
7517;SDS011;3800;48.922;9.444;2022-09-16T02:12:51;8.33;;;7.37;;
7517;SDS011;3800;48.922;9.444;2022-09-16T02:15:19;9.33;;;7.70;;
7517;SDS011;3800;48.922;9.444;2022-09-16T02:17:50;7.97;;;7.17;;
7517;SDS011;3800;48.922;9.444;2022-09-16T02:20:18;7.77;;;6.80;;
7517;SDS011;3800;48.922;9.444;2022-09-16T02:22:47;7.80;;;7.00;;
7517;SDS011;3800;48.922;9.444;2022-09-16T02:25:15;7.40;;;6.80;;
7517;SDS011;3800;48.922;9.444;2022-09-16T02:27:42;8.60;;;7.80;;
7517;SDS011;3800;48.922;9.444;2022-09-16T02:30:13;8.03;;;7.33;;
7517;SDS011;3800;48.922;9.444;2022-09-16T02:32:44;9.67;;;7.60;;
7517;SDS011;3800;48.922;9.444;2022-09-16T02:35:16;7.97;;;7.17;;
7517;SDS011;3800;48.922;9.444;2022-09-16T02:37:47;8.40;;;7.60;;
7517;SDS011;3800;48.922;9.444;2022-09-16T02:40:20;7.33;;;6.63;;
7517;SDS011;3800;48.922;9.444;2022-09-16T02:42:56;15.10;;;7.97;;
7517;SDS011;3800;48.922;9.444;2022-09-16T02:45:24;8.93;;;8.03;;
7517;SDS011;3800;48.922;9.444;2022-09-16T02:47:55;9.33;;;8.33;;
7517;SDS011;3800;48.922;9.444;2022-09-16T02:50:39;8.73;;;7.90;;
7517;SDS011;3800;48.922;9.444;2022-09-16T02:53:11;9.50;;;8.10;;
7517;SDS011;3800;48.922;9.444;2022-09-16T02:55:45;8.20;;;7.40;;
7517;SDS011;3800;48.922;9.444;2022-09-16T02:58:14;7.63;;;7.00;;
7517;SDS011;3800;48.922;9.444;2022-09-16T03:00:44;8.20;;;7.40;;
7517;SDS011;3800;48.922;9.444;2022-09-16T03:03:12;8.33;;;7.20;;
7517;SDS011;3800;48.922;9.444;2022-09-16T03:06:13;7.27;;;6.53;;
7517;SDS011;3800;48.922;9.444;2022-09-16T03:08:40;7.33;;;6.63;;
7517;SDS011;3800;48.922;9.444;2022-09-16T03:11:15;10.07;;;7.47;;
7517;SDS011;3800;48.922;9.444;2022-09-16T03:14:04;8.13;;;7.33;;
7517;SDS011;3800;48.922;9.444;2022-09-16T03:16:34;8.27;;;7.47;;
7517;SDS011;3800;48.922;9.444;2022-09-16T03:19:20;9.30;;;7.70;;
7517;SDS011;3800;48.922;9.444;2022-09-16T03:22:00;8.67;;;7.80;;
7517;SDS011;3800;48.922;9.444;2022-09-16T03:24:52;13.20;;;8.80;;
7517;SDS011;3800;48.922;9.444;2022-09-16T03:27:30;10.70;;;8.23;;
7517;SDS011;3800;48.922;9.444;2022-09-16T03:30:01;10.57;;;9.03;;
7517;SDS011;3800;48.922;9.444;2022-09-16T03:32:30;10.53;;;8.47;;
7517;SDS011;3800;48.922;9.444;2022-09-16T03:35:03;9.47;;;8.57;;
7517;SDS011;3800;48.922;9.444;2022-09-16T03:37:35;12.13;;;9.20;;
7517;SDS011;3800;48.922;9.444;2022-09-16T03:40:07;11.93;;;9.60;;
7517;SDS011;3800;48.922;9.444;2022-09-16T03:42:37;13.20;;;9.50;;
7517;SDS011;3800;48.922;9.444;2022-09-16T03:45:08;12.23;;;10.13;;
7517;SDS011;3800;48.922;9.444;2022-09-16T03:47:36;10.73;;;9.73;;
7517;SDS011;3800;48.922;9.444;2022-09-16T03:50:05;12.10;;;10.50;;
7517;SDS011;3800;48.922;9.444;2022-09-16T03:52:35;11.13;;;10.03;;
7517;SDS011;3800;48.922;9.444;2022-09-16T03:55:04;11.30;;;9.77;;
7517;SDS011;3800;48.922;9.444;2022-09-16T03:57:33;11.90;;;9.97;;
7517;SDS011;3800;48.922;9.444;2022-09-16T04:00:02;10.97;;;9.87;;
7517;SDS011;3800;48.922;9.444;2022-09-16T04:02:29;11.23;;;10.10;;
7517;SDS011;3800;48.922;9.444;2022-09-16T04:04:58;10.97;;;9.07;;
7517;SDS011;3800;48.922;9.444;2022-09-16T04:07:26;10.40;;;9.30;;
7517;SDS011;3800;48.922;9.444;2022-09-16T04:09:55;15.87;;;10.33;;
7517;SDS011;3800;48.922;9.444;2022-09-16T04:12:23;11.00;;;9.90;;
7517;SDS011;3800;48.922;9.444;2022-09-16T04:14:51;11.23;;;10.00;;
7517;SDS011;3800;48.922;9.444;2022-09-16T04:17:20;11.73;;;10.00;;
7517;SDS011;3800;48.922;9.444;2022-09-16T04:19:48;10.00;;;9.00;;
7517;SDS011;3800;48.922;9.444;2022-09-16T04:22:16;13.03;;;9.77;;
7517;SDS011;3800;48.922;9.444;2022-09-16T04:24:45;10.07;;;9.07;;
7517;SDS011;3800;48.922;9.444;2022-09-16T04:27:13;10.67;;;9.23;;
7517;SDS011;3800;48.922;9.444;2022-09-16T04:29:42;10.87;;;8.50;;
7517;SDS011;3800;48.922;9.444;2022-09-16T04:32:10;12.00;;;8.90;;
7517;SDS011;3800;48.922;9.444;2022-09-16T04:34:38;10.60;;;8.57;;
7517;SDS011;3800;48.922;9.444;2022-09-16T04:37:07;9.83;;;8.27;;
7517;SDS011;3800;48.922;9.444;2022-09-16T04:39:35;10.13;;;9.00;;
7517;SDS011;3800;48.922;9.444;2022-09-16T04:42:03;8.77;;;7.97;;
7517;SDS011;3800;48.922;9.444;2022-09-16T04:44:32;9.30;;;8.40;;
7517;SDS011;3800;48.922;9.444;2022-09-16T04:47:00;9.30;;;8.40;;
7517;SDS011;3800;48.922;9.444;2022-09-16T04:49:28;9.97;;;8.77;;
7517;SDS011;3800;48.922;9.444;2022-09-16T04:51:57;9.90;;;8.90;;
7517;SDS011;3800;48.922;9.444;2022-09-16T04:54:25;9.90;;;8.90;;
7517;SDS011;3800;48.922;9.444;2022-09-16T04:56:54;9.87;;;8.87;;
7517;SDS011;3800;48.922;9.444;2022-09-16T04:59:22;10.20;;;8.67;;
7517;SDS011;3800;48.922;9.444;2022-09-16T05:01:51;11.33;;;9.43;;
7517;SDS011;3800;48.922;9.444;2022-09-16T05:04:19;10.00;;;8.73;;
7517;SDS011;3800;48.922;9.444;2022-09-16T05:06:48;11.77;;;9.33;;
7517;SDS011;3800;48.922;9.444;2022-09-16T05:09:16;10.93;;;8.60;;
7517;SDS011;3800;48.922;9.444;2022-09-16T05:11:45;9.50;;;8.60;;
7517;SDS011;3800;48.922;9.444;2022-09-16T05:14:15;9.60;;;8.60;;
7517;SDS011;3800;48.922;9.444;2022-09-16T05:16:43;10.50;;;9.40;;
7517;SDS011;3800;48.922;9.444;2022-09-16T05:19:12;10.83;;;8.40;;
7517;SDS011;3800;48.922;9.444;2022-09-16T05:21:40;9.60;;;8.20;;
7517;SDS011;3800;48.922;9.444;2022-09-16T05:24:10;9.30;;;8.40;;
7517;SDS011;3800;48.922;9.444;2022-09-16T05:26:37;8.90;;;8.10;;
7517;SDS011;3800;48.922;9.444;2022-09-16T05:29:06;8.97;;;8.07;;
7517;SDS011;3800;48.922;9.444;2022-09-16T05:31:34;9.20;;;8.30;;
7517;SDS011;3800;48.922;9.444;2022-09-16T05:34:04;9.20;;;8.10;;
7517;SDS011;3800;48.922;9.444;2022-09-16T05:36:34;10.00;;;8.83;;
7517;SDS011;3800;48.922;9.444;2022-09-16T05:39:02;9.37;;;8.47;;
7517;SDS011;3800;48.922;9.444;2022-09-16T05:41:31;9.40;;;8.50;;
7517;SDS011;3800;48.922;9.444;2022-09-16T05:44:00;9.60;;;8.70;;
7517;SDS011;3800;48.922;9.444;2022-09-16T05:46:28;8.77;;;8.03;;
7517;SDS011;3800;48.922;9.444;2022-09-16T05:48:56;9.17;;;8.27;;
7517;SDS011;3800;48.922;9.444;2022-09-16T05:51:25;10.33;;;9.33;;
7517;SDS011;3800;48.922;9.444;2022-09-16T05:53:53;9.17;;;8.27;;
7517;SDS011;3800;48.922;9.444;2022-09-16T05:56:22;9.80;;;8.80;;
7517;SDS011;3800;48.922;9.444;2022-09-16T05:58:51;9.33;;;8.53;;
7517;SDS011;3800;48.922;9.444;2022-09-16T06:01:19;9.23;;;8.33;;
7517;SDS011;3800;48.922;9.444;2022-09-16T06:03:48;9.50;;;8.57;;
7517;SDS011;3800;48.922;9.444;2022-09-16T06:06:24;10.13;;;9.13;;
7517;SDS011;3800;48.922;9.444;2022-09-16T06:09:05;10.83;;;9.57;;
7517;SDS011;3800;48.922;9.444;2022-09-16T06:11:39;10.47;;;8.23;;
7517;SDS011;3800;48.922;9.444;2022-09-16T06:14:07;10.20;;;9.20;;
7517;SDS011;3800;48.922;9.444;2022-09-16T06:16:35;11.37;;;9.33;;
7517;SDS011;3800;48.922;9.444;2022-09-16T06:19:05;10.03;;;9.03;;
7517;SDS011;3800;48.922;9.444;2022-09-16T06:21:32;11.60;;;9.13;;
7517;SDS011;3800;48.922;9.444;2022-09-16T06:24:00;10.03;;;9.03;;
7517;SDS011;3800;48.922;9.444;2022-09-16T06:26:29;11.10;;;9.20;;
7517;SDS011;3800;48.922;9.444;2022-09-16T06:28:58;12.60;;;9.20;;
7517;SDS011;3800;48.922;9.444;2022-09-16T06:31:27;9.97;;;8.90;;
7517;SDS011;3800;48.922;9.444;2022-09-16T06:33:56;9.43;;;8.37;;
7517;SDS011;3800;48.922;9.444;2022-09-16T06:36:25;10.17;;;8.40;;
7517;SDS011;3800;48.922;9.444;2022-09-16T06:38:52;9.40;;;8.47;;
7517;SDS011;3800;48.922;9.444;2022-09-16T06:41:21;10.03;;;8.07;;
7517;SDS011;3800;48.922;9.444;2022-09-16T06:43:49;10.17;;;8.97;;
7517;SDS011;3800;48.922;9.444;2022-09-16T06:46:19;9.07;;;8.13;;
7517;SDS011;3800;48.922;9.444;2022-09-16T06:48:48;9.63;;;7.60;;
7517;SDS011;3800;48.922;9.444;2022-09-16T06:51:16;8.47;;;7.33;;
7517;SDS011;3800;48.922;9.444;2022-09-16T06:53:44;8.10;;;6.90;;
7517;SDS011;3800;48.922;9.444;2022-09-16T06:56:13;8.47;;;6.00;;
7517;SDS011;3800;48.922;9.444;2022-09-16T06:58:42;8.00;;;6.17;;
7517;SDS011;3800;48.922;9.444;2022-09-16T07:01:10;7.87;;;5.87;;
7517;SDS011;3800;48.922;9.444;2022-09-16T07:03:39;6.63;;;5.27;;
7517;SDS011;3800;48.922;9.444;2022-09-16T07:06:09;7.03;;;4.67;;
7517;SDS011;3800;48.922;9.444;2022-09-16T07:08:37;5.50;;;2.83;;
7517;SDS011;3800;48.922;9.444;2022-09-16T07:11:07;4.60;;;3.50;;
7517;SDS011;3800;48.922;9.444;2022-09-16T07:13:34;5.73;;;3.03;;
7517;SDS011;3800;48.922;9.444;2022-09-16T07:16:04;6.53;;;3.27;;
7517;SDS011;3800;48.922;9.444;2022-09-16T07:18:31;5.30;;;2.70;;
7517;SDS011;3800;48.922;9.444;2022-09-16T07:21:01;5.07;;;2.93;;
7517;SDS011;3800;48.922;9.444;2022-09-16T07:23:31;4.80;;;3.50;;
7517;SDS011;3800;48.922;9.444;2022-09-16T07:26:03;5.40;;;3.23;;
7517;SDS011;3800;48.922;9.444;2022-09-16T07:28:31;6.07;;;3.97;;
7517;SDS011;3800;48.922;9.444;2022-09-16T07:31:00;7.57;;;3.60;;
7517;SDS011;3800;48.922;9.444;2022-09-16T07:33:29;4.67;;;3.60;;
7517;SDS011;3800;48.922;9.444;2022-09-16T07:35:57;6.57;;;4.37;;
7517;SDS011;3800;48.922;9.444;2022-09-16T07:38:25;5.77;;;4.03;;
7517;SDS011;3800;48.922;9.444;2022-09-16T07:40:54;6.03;;;3.93;;
7517;SDS011;3800;48.922;9.444;2022-09-16T07:43:22;5.03;;;3.67;;
7517;SDS011;3800;48.922;9.444;2022-09-16T07:45:55;4.23;;;3.50;;
7517;SDS011;3800;48.922;9.444;2022-09-16T07:48:24;4.63;;;3.47;;
7517;SDS011;3800;48.922;9.444;2022-09-16T07:50:54;3.60;;;3.27;;
7517;SDS011;3800;48.922;9.444;2022-09-16T07:53:24;6.47;;;4.77;;
7517;SDS011;3800;48.922;9.444;2022-09-16T07:55:52;6.20;;;4.10;;
7517;SDS011;3800;48.922;9.444;2022-09-16T07:58:21;4.73;;;3.63;;
7517;SDS011;3800;48.922;9.444;2022-09-16T08:00:50;6.10;;;4.13;;
7517;SDS011;3800;48.922;9.444;2022-09-16T08:03:18;7.27;;;4.20;;
7517;SDS011;3800;48.922;9.444;2022-09-16T08:05:46;4.80;;;4.27;;
7517;SDS011;3800;48.922;9.444;2022-09-16T08:08:16;10.10;;;4.80;;
7517;SDS011;3800;48.922;9.444;2022-09-16T08:10:51;6.87;;;4.73;;
7517;SDS011;3800;48.922;9.444;2022-09-16T08:13:14;6.13;;;4.40;;
7517;SDS011;3800;48.922;9.444;2022-09-16T08:15:43;7.53;;;4.20;;
7517;SDS011;3800;48.922;9.444;2022-09-16T08:18:12;5.60;;;3.60;;
7517;SDS011;3800;48.922;9.444;2022-09-16T08:20:42;4.43;;;3.73;;
7517;SDS011;3800;48.922;9.444;2022-09-16T08:23:10;4.70;;;3.33;;
7517;SDS011;3800;48.922;9.444;2022-09-16T08:25:39;5.57;;;2.97;;
7517;SDS011;3800;48.922;9.444;2022-09-16T08:28:12;5.47;;;3.00;;
7517;SDS011;3800;48.922;9.444;2022-09-16T08:30:40;3.83;;;3.07;;
7517;SDS011;3800;48.922;9.444;2022-09-16T08:33:09;5.80;;;3.50;;
7517;SDS011;3800;48.922;9.444;2022-09-16T08:35:43;3.80;;;3.13;;
7517;SDS011;3800;48.922;9.444;2022-09-16T08:38:14;5.30;;;3.70;;
7517;SDS011;3800;48.922;9.444;2022-09-16T08:40:44;4.77;;;3.77;;
7517;SDS011;3800;48.922;9.444;2022-09-16T08:43:20;5.47;;;3.70;;
7517;SDS011;3800;48.922;9.444;2022-09-16T08:45:53;8.03;;;4.30;;
7517;SDS011;3800;48.922;9.444;2022-09-16T08:48:34;5.40;;;3.87;;
7517;SDS011;3800;48.922;9.444;2022-09-16T08:51:01;6.80;;;4.27;;
7517;SDS011;3800;48.922;9.444;2022-09-16T08:53:34;7.37;;;4.57;;
7517;SDS011;3800;48.922;9.444;2022-09-16T08:56:03;6.20;;;4.50;;
7517;SDS011;3800;48.922;9.444;2022-09-16T08:58:50;6.37;;;4.73;;
7517;SDS011;3800;48.922;9.444;2022-09-16T09:01:22;5.73;;;4.87;;
7517;SDS011;3800;48.922;9.444;2022-09-16T09:03:56;5.47;;;4.53;;
7517;SDS011;3800;48.922;9.444;2022-09-16T09:06:34;7.33;;;4.90;;
7517;SDS011;3800;48.922;9.444;2022-09-16T09:09:13;7.23;;;4.90;;
7517;SDS011;3800;48.922;9.444;2022-09-16T09:11:59;5.83;;;5.13;;
7517;SDS011;3800;48.922;9.444;2022-09-16T09:14:37;6.87;;;5.03;;
7517;SDS011;3800;48.922;9.444;2022-09-16T09:17:28;6.10;;;5.50;;
7517;SDS011;3800;48.922;9.444;2022-09-16T09:20:24;7.03;;;6.00;;
7517;SDS011;3800;48.922;9.444;2022-09-16T09:23:13;6.53;;;5.17;;
7517;SDS011;3800;48.922;9.444;2022-09-16T09:25:44;9.63;;;5.00;;
7517;SDS011;3800;48.922;9.444;2022-09-16T09:28:34;7.57;;;5.03;;
7517;SDS011;3800;48.922;9.444;2022-09-16T09:31:30;8.17;;;5.90;;
7517;SDS011;3800;48.922;9.444;2022-09-16T09:40:09;7.37;;;6.37;;
7517;SDS011;3800;48.922;9.444;2022-09-16T09:42:43;7.03;;;6.20;;
7517;SDS011;3800;48.922;9.444;2022-09-16T09:45:30;6.90;;;5.77;;
7517;SDS011;3800;48.922;9.444;2022-09-16T09:48:08;7.70;;;6.23;;
7517;SDS011;3800;48.922;9.444;2022-09-16T09:50:40;8.80;;;6.27;;
7517;SDS011;3800;48.922;9.444;2022-09-16T09:53:13;8.60;;;7.17;;
7517;SDS011;3800;48.922;9.444;2022-09-16T09:55:40;8.50;;;7.03;;
7517;SDS011;3800;48.922;9.444;2022-09-16T09:58:20;7.30;;;6.70;;
7517;SDS011;3800;48.922;9.444;2022-09-16T10:00:50;9.40;;;7.20;;
7517;SDS011;3800;48.922;9.444;2022-09-16T10:03:19;9.30;;;7.20;;
7517;SDS011;3800;48.922;9.444;2022-09-16T10:05:47;7.80;;;6.70;;
7517;SDS011;3800;48.922;9.444;2022-09-16T10:08:17;7.57;;;6.67;;
7517;SDS011;3800;48.922;9.444;2022-09-16T10:10:56;8.03;;;7.07;;
7517;SDS011;3800;48.922;9.444;2022-09-16T10:13:23;9.00;;;7.20;;
7517;SDS011;3800;48.922;9.444;2022-09-16T10:15:53;11.50;;;7.20;;
7517;SDS011;3800;48.922;9.444;2022-09-16T10:18:22;8.53;;;6.83;;
7517;SDS011;3800;48.922;9.444;2022-09-16T10:20:55;8.07;;;6.90;;
7517;SDS011;3800;48.922;9.444;2022-09-16T10:23:23;8.83;;;7.13;;
7517;SDS011;3800;48.922;9.444;2022-09-16T10:28:30;9.70;;;7.47;;
7517;SDS011;3800;48.922;9.444;2022-09-16T10:30:58;12.03;;;8.00;;
7517;SDS011;3800;48.922;9.444;2022-09-16T10:33:28;12.27;;;8.07;;
7517;SDS011;3800;48.922;9.444;2022-09-16T10:36:02;12.00;;;9.33;;
7517;SDS011;3800;48.922;9.444;2022-09-16T10:38:40;9.40;;;7.23;;
7517;SDS011;3800;48.922;9.444;2022-09-16T10:41:17;15.40;;;8.33;;
7517;SDS011;3800;48.922;9.444;2022-09-16T10:43:48;9.97;;;6.87;;
7517;SDS011;3800;48.922;9.444;2022-09-16T10:46:18;9.07;;;7.37;;
7517;SDS011;3800;48.922;9.444;2022-09-16T10:48:48;8.57;;;6.83;;
7517;SDS011;3800;48.922;9.444;2022-09-16T10:51:23;8.00;;;6.80;;
7517;SDS011;3800;48.922;9.444;2022-09-16T10:53:52;9.67;;;6.77;;
7517;SDS011;3800;48.922;9.444;2022-09-16T10:56:21;8.93;;;7.17;;
7517;SDS011;3800;48.922;9.444;2022-09-16T10:59:00;9.47;;;7.20;;
7517;SDS011;3800;48.922;9.444;2022-09-16T11:01:33;9.13;;;6.37;;
7517;SDS011;3800;48.922;9.444;2022-09-16T11:04:30;9.43;;;6.13;;
7517;SDS011;3800;48.922;9.444;2022-09-16T11:07:08;7.43;;;6.50;;
7517;SDS011;3800;48.922;9.444;2022-09-16T11:12:38;8.60;;;6.13;;
7517;SDS011;3800;48.922;9.444;2022-09-16T11:15:11;12.33;;;6.23;;
7517;SDS011;3800;48.922;9.444;2022-09-16T11:17:50;8.53;;;6.27;;
7517;SDS011;3800;48.922;9.444;2022-09-16T11:20:43;13.67;;;5.93;;
7517;SDS011;3800;48.922;9.444;2022-09-16T11:23:24;7.50;;;6.00;;
7517;SDS011;3800;48.922;9.444;2022-09-16T11:26:02;7.83;;;5.50;;
7517;SDS011;3800;48.922;9.444;2022-09-16T11:29:00;7.77;;;5.23;;
7517;SDS011;3800;48.922;9.444;2022-09-16T11:31:39;7.50;;;5.60;;
7517;SDS011;3800;48.922;9.444;2022-09-16T11:36:51;6.47;;;5.87;;
7517;SDS011;3800;48.922;9.444;2022-09-16T11:39:54;6.33;;;5.73;;
7517;SDS011;3800;48.922;9.444;2022-09-16T11:45:46;8.13;;;6.50;;
7517;SDS011;3800;48.922;9.444;2022-09-16T11:56:43;7.57;;;5.70;;
7517;SDS011;3800;48.922;9.444;2022-09-16T12:02:14;9.93;;;5.40;;
7517;SDS011;3800;48.922;9.444;2022-09-16T12:04:45;6.47;;;5.00;;
7517;SDS011;3800;48.922;9.444;2022-09-16T12:07:24;7.87;;;4.97;;
7517;SDS011;3800;48.922;9.444;2022-09-16T12:09:58;6.37;;;4.70;;
7517;SDS011;3800;48.922;9.444;2022-09-16T12:12:32;7.30;;;4.00;;
7517;SDS011;3800;48.922;9.444;2022-09-16T12:17:51;7.60;;;4.00;;
7517;SDS011;3800;48.922;9.444;2022-09-16T12:20:28;8.67;;;3.40;;
7517;SDS011;3800;48.922;9.444;2022-09-16T12:23:04;6.17;;;3.20;;
7517;SDS011;3800;48.922;9.444;2022-09-16T12:28:42;4.97;;;2.67;;
7517;SDS011;3800;48.922;9.444;2022-09-16T12:31:47;3.83;;;2.37;;
7517;SDS011;3800;48.922;9.444;2022-09-16T12:34:07;4.43;;;2.40;;
7517;SDS011;3800;48.922;9.444;2022-09-16T12:36:41;2.10;;;1.90;;
7517;SDS011;3800;48.922;9.444;2022-09-16T12:39:08;4.37;;;2.30;;
7517;SDS011;3800;48.922;9.444;2022-09-16T12:41:47;4.03;;;2.10;;
7517;SDS011;3800;48.922;9.444;2022-09-16T12:50:11;6.77;;;2.50;;
7517;SDS011;3800;48.922;9.444;2022-09-16T12:56:08;5.27;;;2.80;;
7517;SDS011;3800;48.922;9.444;2022-09-16T13:01:15;5.43;;;2.37;;
7517;SDS011;3800;48.922;9.444;2022-09-16T13:03:52;3.03;;;1.90;;
7517;SDS011;3800;48.922;9.444;2022-09-16T13:06:28;5.53;;;2.37;;
7517;SDS011;3800;48.922;9.444;2022-09-16T13:08:56;3.67;;;2.07;;
7517;SDS011;3800;48.922;9.444;2022-09-16T13:11:26;3.60;;;2.17;;
7517;SDS011;3800;48.922;9.444;2022-09-16T13:13:55;3.63;;;2.30;;
7517;SDS011;3800;48.922;9.444;2022-09-16T13:16:29;2.93;;;2.20;;
7517;SDS011;3800;48.922;9.444;2022-09-16T13:21:42;4.00;;;2.77;;
7517;SDS011;3800;48.922;9.444;2022-09-16T13:24:19;4.37;;;2.30;;
7517;SDS011;3800;48.922;9.444;2022-09-16T13:26:55;7.57;;;2.47;;
7517;SDS011;3800;48.922;9.444;2022-09-16T13:29:24;3.37;;;2.20;;
7517;SDS011;3800;48.922;9.444;2022-09-16T13:31:58;3.97;;;2.20;;
7517;SDS011;3800;48.922;9.444;2022-09-16T13:34:27;3.00;;;2.30;;
7517;SDS011;3800;48.922;9.444;2022-09-16T13:36:55;5.27;;;2.20;;
7517;SDS011;3800;48.922;9.444;2022-09-16T13:39:27;2.40;;;1.90;;
7517;SDS011;3800;48.922;9.444;2022-09-16T13:41:54;5.20;;;2.10;;
7517;SDS011;3800;48.922;9.444;2022-09-16T13:50:14;4.50;;;2.30;;
7517;SDS011;3800;48.922;9.444;2022-09-16T13:52:43;3.47;;;2.00;;
7517;SDS011;3800;48.922;9.444;2022-09-16T13:55:18;5.33;;;1.90;;
7517;SDS011;3800;48.922;9.444;2022-09-16T14:00:25;3.30;;;2.20;;
7517;SDS011;3800;48.922;9.444;2022-09-16T14:03:14;3.90;;;2.27;;
7517;SDS011;3800;48.922;9.444;2022-09-16T14:06:07;3.00;;;2.20;;
7517;SDS011;3800;48.922;9.444;2022-09-16T14:08:40;3.03;;;2.13;;
7517;SDS011;3800;48.922;9.444;2022-09-16T14:11:32;4.43;;;2.37;;
7517;SDS011;3800;48.922;9.444;2022-09-16T14:14:17;4.77;;;2.30;;
7517;SDS011;3800;48.922;9.444;2022-09-16T14:16:45;4.70;;;2.40;;
7517;SDS011;3800;48.922;9.444;2022-09-16T14:19:23;3.50;;;2.20;;
7517;SDS011;3800;48.922;9.444;2022-09-16T14:21:59;3.93;;;2.10;;
7517;SDS011;3800;48.922;9.444;2022-09-16T14:24:32;5.00;;;2.37;;
7517;SDS011;3800;48.922;9.444;2022-09-16T14:27:00;4.43;;;2.10;;
7517;SDS011;3800;48.922;9.444;2022-09-16T14:29:29;2.87;;;2.10;;
7517;SDS011;3800;48.922;9.444;2022-09-16T14:31:57;5.17;;;2.13;;
7517;SDS011;3800;48.922;9.444;2022-09-16T14:34:28;4.37;;;2.07;;
7517;SDS011;3800;48.922;9.444;2022-09-16T14:36:59;4.13;;;1.90;;
7517;SDS011;3800;48.922;9.444;2022-09-16T14:39:28;4.57;;;2.40;;
7517;SDS011;3800;48.922;9.444;2022-09-16T14:41:58;3.03;;;2.03;;
7517;SDS011;3800;48.922;9.444;2022-09-16T14:44:31;3.63;;;2.27;;
7517;SDS011;3800;48.922;9.444;2022-09-16T14:47:02;4.03;;;2.30;;
7517;SDS011;3800;48.922;9.444;2022-09-16T14:49:29;2.40;;;1.87;;
7517;SDS011;3800;48.922;9.444;2022-09-16T14:51:58;4.33;;;2.03;;
7517;SDS011;3800;48.922;9.444;2022-09-16T14:54:27;4.77;;;1.70;;
7517;SDS011;3800;48.922;9.444;2022-09-16T14:56:55;3.67;;;2.00;;
7517;SDS011;3800;48.922;9.444;2022-09-16T14:59:30;4.40;;;1.97;;
7517;SDS011;3800;48.922;9.444;2022-09-16T15:02:02;4.43;;;1.83;;
7517;SDS011;3800;48.922;9.444;2022-09-16T15:04:31;4.03;;;1.70;;
7517;SDS011;3800;48.922;9.444;2022-09-16T15:07:03;5.97;;;2.03;;
7517;SDS011;3800;48.922;9.444;2022-09-16T15:09:34;2.07;;;1.70;;
7517;SDS011;3800;48.922;9.444;2022-09-16T15:12:03;3.33;;;2.00;;
7517;SDS011;3800;48.922;9.444;2022-09-16T15:14:32;3.57;;;1.60;;
7517;SDS011;3800;48.922;9.444;2022-09-16T15:17:01;3.20;;;1.80;;
7517;SDS011;3800;48.922;9.444;2022-09-16T15:19:30;3.10;;;1.60;;
7517;SDS011;3800;48.922;9.444;2022-09-16T15:21:57;3.73;;;1.67;;
7517;SDS011;3800;48.922;9.444;2022-09-16T15:24:26;3.73;;;2.00;;
7517;SDS011;3800;48.922;9.444;2022-09-16T15:26:54;2.73;;;1.63;;
7517;SDS011;3800;48.922;9.444;2022-09-16T15:29:26;3.50;;;1.70;;
7517;SDS011;3800;48.922;9.444;2022-09-16T15:31:54;5.33;;;1.83;;
7517;SDS011;3800;48.922;9.444;2022-09-16T15:34:22;2.93;;;1.93;;
7517;SDS011;3800;48.922;9.444;2022-09-16T15:36:51;2.23;;;1.50;;
7517;SDS011;3800;48.922;9.444;2022-09-16T15:39:23;3.97;;;2.00;;
7517;SDS011;3800;48.922;9.444;2022-09-16T15:44:31;4.33;;;2.10;;
7517;SDS011;3800;48.922;9.444;2022-09-16T15:47:00;5.13;;;2.00;;
7517;SDS011;3800;48.922;9.444;2022-09-16T15:49:28;3.50;;;1.70;;
7517;SDS011;3800;48.922;9.444;2022-09-16T15:52:02;3.67;;;1.90;;
7517;SDS011;3800;48.922;9.444;2022-09-16T15:54:29;3.30;;;1.90;;
7517;SDS011;3800;48.922;9.444;2022-09-16T15:59:57;3.07;;;1.87;;
7517;SDS011;3800;48.922;9.444;2022-09-16T16:02:37;8.80;;;2.10;;
7517;SDS011;3800;48.922;9.444;2022-09-16T16:05:21;3.40;;;1.67;;
7517;SDS011;3800;48.922;9.444;2022-09-16T16:07:50;2.77;;;1.90;;
7517;SDS011;3800;48.922;9.444;2022-09-16T16:10:19;6.43;;;1.93;;
7517;SDS011;3800;48.922;9.444;2022-09-16T16:12:47;2.80;;;1.67;;
7517;SDS011;3800;48.922;9.444;2022-09-16T16:15:18;2.97;;;1.70;;
7517;SDS011;3800;48.922;9.444;2022-09-16T16:17:46;6.10;;;1.80;;
7517;SDS011;3800;48.922;9.444;2022-09-16T16:20:15;5.70;;;1.90;;
7517;SDS011;3800;48.922;9.444;2022-09-16T16:22:44;2.63;;;1.70;;
7517;SDS011;3800;48.922;9.444;2022-09-16T16:25:12;5.60;;;1.97;;
7517;SDS011;3800;48.922;9.444;2022-09-16T16:27:41;3.03;;;1.60;;
7517;SDS011;3800;48.922;9.444;2022-09-16T16:30:09;2.10;;;1.70;;
7517;SDS011;3800;48.922;9.444;2022-09-16T16:32:38;3.83;;;1.90;;
7517;SDS011;3800;48.922;9.444;2022-09-16T16:35:07;4.43;;;1.47;;
7517;SDS011;3800;48.922;9.444;2022-09-16T16:37:35;3.87;;;1.73;;
7517;SDS011;3800;48.922;9.444;2022-09-16T16:40:04;3.53;;;1.70;;
7517;SDS011;3800;48.922;9.444;2022-09-16T16:42:33;4.37;;;1.73;;
7517;SDS011;3800;48.922;9.444;2022-09-16T16:45:01;2.60;;;1.50;;
7517;SDS011;3800;48.922;9.444;2022-09-16T16:47:30;4.20;;;1.60;;
7517;SDS011;3800;48.922;9.444;2022-09-16T16:49:58;2.80;;;1.63;;
7517;SDS011;3800;48.922;9.444;2022-09-16T16:52:28;3.67;;;1.60;;